Time;durP1;ratioP1;P1;durP2;ratioP2;P2;SDS_P1;SDS_P2;PMS_P1;PMS_P2;Temp;Humidity;BMP_temperature;BMP_pressure;BME280_temperature;BME280_humidity;BME280_pressure;Samples;Min_cycle;Max_cycle;Signal;HPM_P1;HPM_P2
2021/03/27 00:02:03;;;;;;;7.97;1.80;;;;;;;;;;5015006;28;20056;-62
2021/03/27 00:04:48;;;;;;;3.00;1.10;;;;;;;;;;5013702;28;20050;-62
2021/03/27 00:07:35;;;;;;;1.70;1.40;;;;;;;;;;5014776;28;20496;-62
2021/03/27 00:10:57;;;;;;;4.05;1.08;;;;;;;;;;5013404;28;20385;-62
2021/03/27 00:14:01;;;;;;;4.75;1.42;;;;;;;;;;5011939;28;20038;-62
2021/03/27 00:16:50;;;;;;;3.85;1.73;;;;;;;;;;5010279;28;20080;-63
2021/03/27 00:19:39;;;;;;;3.28;1.60;;;;;;;;;;4994066;28;20485;-61
2021/03/27 00:22:32;;;;;;;3.92;1.58;;;;;;;;;;4995060;28;20046;-62
2021/03/27 00:25:17;;;;;;;3.10;1.70;;;;;;;;;;4993663;28;20157;-61
2021/03/27 00:28:07;;;;;;;5.28;1.58;;;;;;;;;;5011994;28;20049;-62
2021/03/27 00:30:54;;;;;;;2.65;1.38;;;;;;;;;;5014453;28;20038;-61
2021/03/27 00:33:42;;;;;;;6.93;1.67;;;;;;;;;;5013453;28;20042;-62
2021/03/27 00:36:31;;;;;;;3.63;1.60;;;;;;;;;;5012925;28;20054;-62
2021/03/27 00:39:18;;;;;;;5.20;1.45;;;;;;;;;;5013130;28;20046;-62
2021/03/27 00:42:05;;;;;;;3.90;1.25;;;;;;;;;;5014198;28;20048;-63
2021/03/27 00:44:54;;;;;;;3.63;1.48;;;;;;;;;;5012775;28;20447;-62
2021/03/27 00:47:41;;;;;;;3.05;1.50;;;;;;;;;;4993545;28;20509;-62
2021/03/27 00:50:32;;;;;;;4.25;1.70;;;;;;;;;;4993379;28;20520;-62
2021/03/27 00:53:36;;;;;;;3.45;2.00;;;;;;;;;;4996688;28;20041;-62
2021/03/27 00:56:21;;;;;;;4.57;1.70;;;;;;;;;;4998803;28;20045;-63
2021/03/27 00:59:08;;;;;;;3.45;2.13;;;;;;;;;;5002798;28;20132;-61
2021/03/27 01:02:03;;;;;;;3.83;2.15;;;;;;;;;;5014363;28;20061;-62
2021/03/27 01:04:58;;;;;;;3.35;1.88;;;;;;;;;;5013410;28;20496;-62
2021/03/27 01:08:05;;;;;;;5.80;2.30;;;;;;;;;;5012783;28;20050;-62
2021/03/27 01:11:16;;;;;;;;;;;;;;;;;;4993763;28;20043;-63
2021/03/27 01:14:14;;;;;;;5.68;2.38;;;;;;;;;;5012766;28;19925;-64
2021/03/27 01:17:00;;;;;;;5.82;2.88;;;;;;;;;;5012664;28;20050;-63
2021/03/27 01:19:53;;;;;;;6.03;2.55;;;;;;;;;;4998476;28;20049;-63
2021/03/27 01:22:38;;;;;;;6.32;3.45;;;;;;;;;;5011880;28;20081;-63
2021/03/27 01:25:27;;;;;;;7.03;4.57;;;;;;;;;;5013116;28;20041;-62
2021/03/27 01:28:17;;;;;;;8.90;4.60;;;;;;;;;;5013312;28;20447;-62
2021/03/27 01:31:08;;;;;;;8.73;5.10;;;;;;;;;;5012262;28;20041;-62
2021/03/27 01:33:58;;;;;;;7.10;5.70;;;;;;;;;;5013367;28;20050;-62
2021/03/27 01:36:45;;;;;;;10.07;5.97;;;;;;;;;;4998310;28;20046;-62
2021/03/27 01:39:54;;;;;;;12.32;7.28;;;;;;;;;;5012284;28;20056;-62
2021/03/27 01:42:56;;;;;;;9.07;6.32;;;;;;;;;;5011027;28;20136;-62
2021/03/27 01:45:59;;;;;;;8.45;6.93;;;;;;;;;;5011850;28;20057;-63
2021/03/27 01:49:03;;;;;;;9.35;6.60;;;;;;;;;;5012984;28;20042;-62
2021/03/27 01:51:58;;;;;;;12.50;6.13;;;;;;;;;;5012894;28;20096;-62
2021/03/27 01:54:50;;;;;;;7.35;5.95;;;;;;;;;;5011577;28;20049;-62
2021/03/27 01:57:50;;;;;;;8.00;5.43;;;;;;;;;;5002547;28;20049;-61
2021/03/27 02:00:36;;;;;;;8.07;4.93;;;;;;;;;;4992216;28;20451;-62
2021/03/27 02:03:25;;;;;;;8.57;5.05;;;;;;;;;;4992207;28;20051;-62
2021/03/27 02:06:17;;;;;;;13.82;6.07;;;;;;;;;;4992699;28;20062;-62
2021/03/27 02:09:07;;;;;;;4.75;3.97;;;;;;;;;;4991939;28;20560;-61
2021/03/27 02:12:00;;;;;;;7.18;3.40;;;;;;;;;;4997919;28;20044;-62
2021/03/27 02:14:52;;;;;;;5.78;2.80;;;;;;;;;;5012506;28;20042;-62
2021/03/27 02:17:40;;;;;;;6.85;2.70;;;;;;;;;;5011464;28;20054;-63
2021/03/27 02:20:28;;;;;;;9.20;2.75;;;;;;;;;;5010108;28;20081;-61
2021/03/27 02:23:34;;;;;;;4.70;3.17;;;;;;;;;;4998965;28;20092;-63
2021/03/27 02:26:19;;;;;;;6.13;3.25;;;;;;;;;;5005280;28;20133;-62
2021/03/27 02:29:32;;;;;;;10.95;3.63;;;;;;;;;;5004456;28;20050;-62
2021/03/27 02:32:17;;;;;;;5.15;3.55;;;;;;;;;;5011965;28;20049;-62
2021/03/27 02:35:21;;;;;;;6.80;4.30;;;;;;;;;;5011944;28;20136;-61
2021/03/27 02:38:25;;;;;;;7.25;4.95;;;;;;;;;;5012361;28;20041;-62
2021/03/27 02:41:23;;;;;;;6.18;4.82;;;;;;;;;;5012246;28;20512;-62
2021/03/27 02:44:17;;;;;;;6.18;4.93;;;;;;;;;;5012168;28;20058;-62
2021/03/27 02:47:20;;;;;;;7.93;5.75;;;;;;;;;;4992709;28;20178;-62
2021/03/27 02:50:24;;;;;;;8.60;5.57;;;;;;;;;;4992703;28;20050;-62
2021/03/27 02:53:16;;;;;;;9.07;6.72;;;;;;;;;;4995935;28;20491;-62
2021/03/27 02:56:02;;;;;;;;;;;;;;;;;;5011116;28;20042;-62
2021/03/27 02:58:47;;;;;;;8.63;5.53;;;;;;;;;;5012363;28;20056;-62
2021/03/27 03:01:36;;;;;;;9.18;5.30;;;;;;;;;;5012129;28;20046;-62
2021/03/27 03:04:21;;;;;;;6.90;5.43;;;;;;;;;;5000137;28;20056;-61
2021/03/27 03:07:16;;;;;;;14.48;5.68;;;;;;;;;;4992643;28;20463;-63
2021/03/27 03:10:01;;;;;;;9.32;6.18;;;;;;;;;;4991398;28;20046;-62
2021/03/27 03:12:57;;;;;;;10.55;6.18;;;;;;;;;;4992365;28;20556;-63
2021/03/27 03:15:43;;;;;;;8.15;6.10;;;;;;;;;;5009637;28;20050;-62
2021/03/27 03:18:47;;;;;;;9.88;5.75;;;;;;;;;;5011109;28;20053;-62
2021/03/27 03:21:39;;;;;;;7.50;5.75;;;;;;;;;;5011940;28;20046;-62
2021/03/27 03:24:34;;;;;;;8.65;5.65;;;;;;;;;;5005320;28;20053;-63
2021/03/27 03:27:32;;;;;;;8.90;5.30;;;;;;;;;;5003353;28;20050;-63
2021/03/27 03:30:37;;;;;;;11.73;5.25;;;;;;;;;;4991262;28;20054;-62
2021/03/27 03:33:25;;;;;;;9.57;6.07;;;;;;;;;;4992153;28;20082;-62
2021/03/27 03:36:11;;;;;;;11.43;6.05;;;;;;;;;;5008837;28;20070;-62
2021/03/27 03:39:15;;;;;;;11.57;6.78;;;;;;;;;;5011846;28;20435;-62
2021/03/27 03:42:05;;;;;;;12.48;5.75;;;;;;;;;;5011648;28;20124;-62
2021/03/27 03:45:06;;;;;;;14.00;5.90;;;;;;;;;;5011453;28;20034;-62
2021/03/27 03:48:02;;;;;;;13.68;5.53;;;;;;;;;;5015239;28;20052;-62
2021/03/27 03:50:51;;;;;;;9.25;5.32;;;;;;;;;;5015076;28;20041;-62
2021/03/27 03:53:39;;;;;;;9.68;6.18;;;;;;;;;;5015173;28;20050;-62
2021/03/27 03:56:32;;;;;;;9.75;4.93;;;;;;;;;;5014479;28;20496;-62
2021/03/27 03:59:36;;;;;;;10.43;4.85;;;;;;;;;;5013000;28;20053;-63
2021/03/27 04:02:27;;;;;;;14.25;5.47;;;;;;;;;;5014431;28;20480;-62
2021/03/27 04:05:23;;;;;;;9.95;5.32;;;;;;;;;;5014484;28;20042;-63
2021/03/27 04:08:18;;;;;;;10.27;5.13;;;;;;;;;;5013920;28;20054;-63
2021/03/27 04:11:10;;;;;;;9.27;4.32;;;;;;;;;;5013363;28;20492;-63
2021/03/27 04:13:55;;;;;;;12.57;4.43;;;;;;;;;;5013908;28;20045;-62
2021/03/27 04:16:41;;;;;;;10.77;3.28;;;;;;;;;;5014358;28;20515;-63
2021/03/27 04:19:27;;;;;;;10.35;4.55;;;;;;;;;;5013503;28;20053;-63
2021/03/27 04:22:23;;;;;;;9.85;4.20;;;;;;;;;;5013840;28;20046;-62
2021/03/27 04:25:15;;;;;;;9.00;3.25;;;;;;;;;;5013459;28;20061;-63
2021/03/27 04:28:03;;;;;;;8.13;3.03;;;;;;;;;;5013412;28;20129;-62
2021/03/27 04:30:49;;;;;;;8.88;3.42;;;;;;;;;;5013486;28;20636;-63
2021/03/27 04:33:46;;;;;;;10.43;3.65;;;;;;;;;;5000526;28;20049;-63
2021/03/27 04:36:44;;;;;;;10.38;3.88;;;;;;;;;;5012967;28;20471;-63
2021/03/27 04:39:48;;;;;;;7.72;3.72;;;;;;;;;;5013527;28;20060;-63
2021/03/27 04:42:48;;;;;;;10.75;3.67;;;;;;;;;;5013434;28;20057;-63
2021/03/27 04:45:47;;;;;;;10.25;3.33;;;;;;;;;;5012950;28;20130;-63
2021/03/27 04:48:42;;;;;;;22.35;5.90;;;;;;;;;;5012987;28;20050;-63
2021/03/27 04:51:32;;;;;;;9.40;3.63;;;;;;;;;;5013149;28;20038;-63
2021/03/27 04:54:30;;;;;;;9.25;3.95;;;;;;;;;;5012805;28;20117;-63
2021/03/27 04:57:22;;;;;;;11.27;4.30;;;;;;;;;;5012850;28;20053;-62
2021/03/27 05:00:16;;;;;;;10.68;3.92;;;;;;;;;;4999282;28;20136;-62
2021/03/27 05:03:04;;;;;;;6.78;3.17;;;;;;;;;;5012704;28;20049;-62
2021/03/27 05:05:59;;;;;;;5.82;3.13;;;;;;;;;;5012648;28;20060;-63
2021/03/27 05:08:54;;;;;;;6.22;3.20;;;;;;;;;;5012703;28;20046;-62
2021/03/27 05:11:39;;;;;;;10.93;3.13;;;;;;;;;;5013798;28;20181;-62
2021/03/27 05:14:43;;;;;;;11.43;4.13;;;;;;;;;;5013500;28;20460;-62
2021/03/27 05:17:28;;;;;;;7.70;3.17;;;;;;;;;;5013548;28;20162;-63
2021/03/27 05:20:18;;;;;;;11.38;4.30;;;;;;;;;;4994123;28;20050;-63
2021/03/27 05:23:11;;;;;;;10.75;4.10;;;;;;;;;;4994038;28;20057;-62
2021/03/27 05:25:58;;;;;;;14.25;5.82;;;;;;;;;;5006079;28;20046;-62
2021/03/27 05:28:59;;;;;;;11.23;6.03;;;;;;;;;;4999572;28;20069;-62
2021/03/27 05:31:58;;;;;;;10.93;5.70;;;;;;;;;;5013333;28;20071;-61
2021/03/27 05:34:44;;;;;;;11.40;6.47;;;;;;;;;;5012013;28;20049;-62
2021/03/27 05:37:59;;;;;;;15.18;6.57;;;;;;;;;;5012307;28;20050;-62
2021/03/27 05:40:45;;;;;;;15.70;8.57;;;;;;;;;;5012600;28;20092;-62
2021/03/27 05:43:33;;;;;;;11.35;7.07;;;;;;;;;;5013237;28;20050;-62
2021/03/27 05:46:37;;;;;;;13.82;7.22;;;;;;;;;;5011769;28;20511;-62
2021/03/27 05:49:35;;;;;;;15.25;7.45;;;;;;;;;;5012924;28;20042;-61
2021/03/27 05:52:35;;;;;;;12.32;6.65;;;;;;;;;;4998292;28;20069;-62
2021/03/27 05:55:26;;;;;;;12.73;6.70;;;;;;;;;;5012818;28;20053;-63
2021/03/27 05:58:12;;;;;;;14.23;6.53;;;;;;;;;;5012934;28;20100;-62
2021/03/27 06:01:14;;;;;;;14.20;7.55;;;;;;;;;;5012401;28;20407;-63
2021/03/27 06:04:06;;;;;;;14.38;6.93;;;;;;;;;;5011912;28;20060;-62
2021/03/27 06:07:10;;;;;;;11.82;5.63;;;;;;;;;;5012381;28;20049;-63
2021/03/27 06:09:55;;;;;;;10.35;5.78;;;;;;;;;;5012305;28;20056;-64
2021/03/27 06:12:48;;;;;;;10.75;5.25;;;;;;;;;;5012627;28;20042;-62
2021/03/27 06:15:51;;;;;;;15.75;5.43;;;;;;;;;;5011131;28;20066;-64
2021/03/27 06:18:49;;;;;;;12.45;5.35;;;;;;;;;;5002297;28;20416;-63
2021/03/27 06:21:52;;;;;;;10.20;4.88;;;;;;;;;;5007343;28;20046;-63
2021/03/27 06:24:40;;;;;;;16.00;5.47;;;;;;;;;;4992390;28;20118;-63
2021/03/27 06:27:44;;;;;;;12.23;4.78;;;;;;;;;;4991875;28;20046;-63
2021/03/27 06:30:29;;;;;;;;;;;;;;;;;;5001558;28;20088;-63
2021/03/27 06:33:14;;;;;;;14.38;5.10;;;;;;;;;;5012449;28;19929;-64
2021/03/27 06:36:02;;;;;;;6.78;2.67;;;;;;;;;;5011953;28;20484;-64
2021/03/27 06:39:06;;;;;;;14.00;3.00;;;;;;;;;;5011111;28;20041;-63
2021/03/27 06:41:56;;;;;;;9.40;3.10;;;;;;;;;;5012133;28;20053;-64
2021/03/27 06:45:00;;;;;;;17.52;4.22;;;;;;;;;;5010758;28;20046;-64
2021/03/27 06:47:52;;;;;;;11.82;3.63;;;;;;;;;;5011041;28;20048;-63
2021/03/27 06:50:47;;;;;;;11.45;2.50;;;;;;;;;;5010948;28;20488;-63
2021/03/27 06:53:38;;;;;;;10.40;2.90;;;;;;;;;;4997360;28;20046;-64
2021/03/27 06:56:30;;;;;;;12.82;3.03;;;;;;;;;;5011813;28;20124;-64
2021/03/27 06:59:35;;;;;;;14.88;2.80;;;;;;;;;;5011272;28;20440;-64
2021/03/27 07:02:36;;;;;;;12.20;3.33;;;;;;;;;;5011679;28;20416;-64
2021/03/27 07:05:39;;;;;;;14.05;4.22;;;;;;;;;;5011792;28;20057;-64
2021/03/27 07:08:43;;;;;;;10.10;2.78;;;;;;;;;;5012253;28;20484;-64
2021/03/27 07:11:40;;;;;;;14.23;3.40;;;;;;;;;;5011990;28;20050;-64
2021/03/27 07:14:25;;;;;;;10.88;2.72;;;;;;;;;;5010617;28;20038;-63
2021/03/27 07:17:16;;;;;;;15.35;3.03;;;;;;;;;;5011913;28;20522;-64
2021/03/27 07:20:24;;;;;;;10.50;2.70;;;;;;;;;;5013707;28;20045;-63
2021/03/27 07:23:17;;;;;;;10.48;2.95;;;;;;;;;;4995949;28;20117;-64
2021/03/27 07:26:15;;;;;;;14.63;2.60;;;;;;;;;;4994965;28;20133;-64
2021/03/27 07:29:31;;;;;;;19.08;3.35;;;;;;;;;;4995927;28;20043;-64
2021/03/27 07:32:19;;;;;;;19.15;3.03;;;;;;;;;;5006435;28;20042;-64
2021/03/27 07:35:04;;;;;;;12.18;3.85;;;;;;;;;;5015106;28;20046;-64
2021/03/27 07:38:08;;;;;;;13.98;2.75;;;;;;;;;;5015627;28;20042;-64
2021/03/27 07:41:12;;;;;;;11.38;2.55;;;;;;;;;;5015497;28;20229;-65
2021/03/27 07:43:57;;;;;;;;;;;;;;;;;;4996196;28;20046;-64
2021/03/27 07:47:00;;;;;;;11.95;2.40;;;;;;;;;;5010921;28;19949;-64
2021/03/27 07:50:04;;;;;;;8.73;2.08;;;;;;;;;;5015113;28;20046;-64
2021/03/27 07:52:52;;;;;;;20.83;2.60;;;;;;;;;;4996128;28;20050;-64
2021/03/27 07:55:39;;;;;;;17.75;3.10;;;;;;;;;;5014762;28;20045;-64
2021/03/27 07:58:26;;;;;;;18.95;3.03;;;;;;;;;;5014009;28;20493;-63
2021/03/27 08:01:18;;;;;;;16.00;2.97;;;;;;;;;;5013919;28;20046;-64
2021/03/27 08:04:21;;;;;;;16.60;2.72;;;;;;;;;;5014962;28;20069;-64
2021/03/27 08:07:07;;;;;;;18.38;3.83;;;;;;;;;;5015007;28;20046;-64
2021/03/27 08:10:11;;;;;;;15.45;2.67;;;;;;;;;;5014968;28;20042;-64
2021/03/27 08:13:07;;;;;;;11.65;2.88;;;;;;;;;;5014939;28;20085;-64
2021/03/27 08:16:11;;;;;;;11.45;3.08;;;;;;;;;;5013355;28;20493;-64
2021/03/27 08:19:10;;;;;;;15.35;2.80;;;;;;;;;;5014701;28;20045;-64
2021/03/27 08:21:55;;;;;;;16.67;4.75;;;;;;;;;;5002263;28;20501;-64
2021/03/27 08:24:44;;;;;;;11.98;2.75;;;;;;;;;;4994711;28;20412;-64
2021/03/27 08:27:48;;;;;;;10.02;2.33;;;;;;;;;;4993937;28;20046;-63
2021/03/27 08:30:39;;;;;;;15.88;3.70;;;;;;;;;;4994669;28;20042;-63
2021/03/27 08:33:43;;;;;;;11.70;2.25;;;;;;;;;;5013451;28;20049;-64
2021/03/27 08:36:41;;;;;;;17.23;2.80;;;;;;;;;;5014193;28;20054;-64
2021/03/27 08:39:37;;;;;;;11.65;2.53;;;;;;;;;;5013394;28;20511;-65
2021/03/27 08:42:28;;;;;;;8.90;2.10;;;;;;;;;;5003991;28;20560;-65
2021/03/27 08:45:18;;;;;;;9.13;2.28;;;;;;;;;;4994308;28;20042;-63
2021/03/27 08:48:16;;;;;;;10.15;2.15;;;;;;;;;;4993494;28;20038;-64
2021/03/27 08:51:05;;;;;;;11.43;2.28;;;;;;;;;;4993492;28;20050;-64
2021/03/27 08:54:09;;;;;;;10.57;2.80;;;;;;;;;;5008853;28;20042;-64
2021/03/27 08:56:58;;;;;;;8.25;2.38;;;;;;;;;;4994213;28;20046;-64
2021/03/27 09:00:01;;;;;;;15.50;2.95;;;;;;;;;;4994429;28;20046;-64
2021/03/27 09:02:53;;;;;;;11.30;2.25;;;;;;;;;;5002914;28;20037;-64
2021/03/27 09:05:38;;;;;;;9.57;1.90;;;;;;;;;;5007969;28;20046;-63
2021/03/27 09:08:42;;;;;;;7.43;2.17;;;;;;;;;;5013934;28;20045;-64
2021/03/27 09:11:33;;;;;;;11.52;2.60;;;;;;;;;;5013461;28;20046;-64
2021/03/27 09:14:36;;;;;;;15.38;3.00;;;;;;;;;;5007811;28;20046;-63
2021/03/27 09:17:37;;;;;;;8.00;1.67;;;;;;;;;;5006157;28;20440;-64
2021/03/27 09:20:32;;;;;;;12.10;3.28;;;;;;;;;;5008692;28;20042;-63
2021/03/27 09:23:20;;;;;;;9.48;3.03;;;;;;;;;;5000158;28;20054;-64
2021/03/27 09:26:15;;;;;;;6.57;1.60;;;;;;;;;;4992394;28;20133;-64
2021/03/27 09:29:11;;;;;;;11.63;1.90;;;;;;;;;;5000318;28;20045;-63
2021/03/27 09:31:56;;;;;;;13.93;2.20;;;;;;;;;;5003632;28;20212;-64
2021/03/27 09:34:51;;;;;;;7.07;2.15;;;;;;;;;;5001773;28;20400;-64
2021/03/27 09:37:42;;;;;;;7.43;2.15;;;;;;;;;;5010767;28;20042;-64
2021/03/27 09:40:56;;;;;;;9.32;1.85;;;;;;;;;;5010462;28;20045;-63
2021/03/27 09:43:44;;;;;;;8.93;2.45;;;;;;;;;;5008606;28;20132;-63
2021/03/27 09:46:48;;;;;;;7.82;2.22;;;;;;;;;;5012446;28;20504;-64
2021/03/27 09:49:52;;;;;;;15.68;2.42;;;;;;;;;;5013108;28;20049;-64
2021/03/27 09:52:46;;;;;;;10.20;2.45;;;;;;;;;;5012911;28;20049;-64
2021/03/27 09:55:47;;;;;;;8.52;3.25;;;;;;;;;;5012400;28;20050;-64
2021/03/27 09:58:51;;;;;;;14.25;2.88;;;;;;;;;;5012124;28;20060;-64
2021/03/27 10:01:41;;;;;;;7.78;2.25;;;;;;;;;;5013050;28;20050;-64
2021/03/27 10:04:48;;;;;;;10.98;1.77;;;;;;;;;;5011480;28;20111;-64
2021/03/27 10:07:52;;;;;;;9.52;1.92;;;;;;;;;;5011716;28;20038;-63
2021/03/27 10:10:39;;;;;;;11.82;1.70;;;;;;;;;;5012451;28;20045;-63
2021/03/27 10:13:39;;;;;;;7.28;1.65;;;;;;;;;;5011728;28;20049;-63
2021/03/27 10:16:26;;;;;;;5.05;1.45;;;;;;;;;;5012035;28;20054;-63
2021/03/27 10:19:23;;;;;;;9.70;2.10;;;;;;;;;;5011753;28;20444;-63
2021/03/27 10:22:14;;;;;;;8.65;2.47;;;;;;;;;;5011596;28;20045;-63
2021/03/27 10:25:01;;;;;;;12.57;3.05;;;;;;;;;;5012041;28;20058;-63
2021/03/27 10:27:54;;;;;;;15.30;2.17;;;;;;;;;;5011448;28;20069;-63
2021/03/27 10:30:42;;;;;;;13.85;2.30;;;;;;;;;;5011734;28;20042;-62
2021/03/27 10:33:27;;;;;;;11.38;2.28;;;;;;;;;;5011173;28;20045;-63
2021/03/27 10:36:15;;;;;;;12.60;3.10;;;;;;;;;;5011853;28;20042;-64
2021/03/27 10:39:13;;;;;;;13.10;2.78;;;;;;;;;;4992847;28;20050;-63
2021/03/27 10:42:18;;;;;;;8.77;2.38;;;;;;;;;;5005408;28;20050;-63
2021/03/27 10:45:09;;;;;;;12.13;3.08;;;;;;;;;;5003038;28;20064;-62
2021/03/27 10:48:06;;;;;;;17.90;3.58;;;;;;;;;;5012313;28;20046;-63
2021/03/27 10:50:54;;;;;;;9.93;1.88;;;;;;;;;;5012334;28;20045;-63
2021/03/27 10:53:47;;;;;;;11.80;2.28;;;;;;;;;;5013450;28;20046;-63
2021/03/27 10:56:32;;;;;;;12.90;2.85;;;;;;;;;;4995301;28;20408;-63
2021/03/27 10:59:37;;;;;;;10.23;2.38;;;;;;;;;;4996512;28;20077;-63
2021/03/27 11:02:28;;;;;;;6.63;1.67;;;;;;;;;;4988349;28;20046;-63
2021/03/27 11:05:40;;;;;;;7.40;2.42;;;;;;;;;;5003650;28;20041;-63
2021/03/27 11:08:25;;;;;;;11.55;2.30;;;;;;;;;;5015582;28;20126;-63
2021/03/27 11:11:26;;;;;;;6.40;1.73;;;;;;;;;;5015998;28;20046;-63
2021/03/27 11:14:23;;;;;;;10.50;1.70;;;;;;;;;;5015755;28;20076;-63
2021/03/27 11:17:17;;;;;;;5.28;2.58;;;;;;;;;;4995294;28;20560;-63
2021/03/27 11:20:21;;;;;;;15.70;2.67;;;;;;;;;;4995135;28;20130;-63
2021/03/27 11:23:27;;;;;;;11.77;3.33;;;;;;;;;;4996286;28;20050;-63
2021/03/27 11:26:31;;;;;;;11.45;2.58;;;;;;;;;;4996777;28;20058;-63
2021/03/27 11:29:27;;;;;;;11.63;1.80;;;;;;;;;;5015748;28;20050;-63
2021/03/27 11:32:21;;;;;;;14.13;2.20;;;;;;;;;;5015601;28;20100;-63
2021/03/27 11:35:12;;;;;;;9.00;2.40;;;;;;;;;;5015244;28;20396;-63
2021/03/27 11:38:00;;;;;;;5.63;1.50;;;;;;;;;;4995950;28;20042;-63
2021/03/27 11:41:00;;;;;;;6.20;1.42;;;;;;;;;;4995866;28;20493;-64
2021/03/27 11:43:48;;;;;;;4.00;0.70;;;;;;;;;;5008675;28;20077;-64
2021/03/27 11:46:40;;;;;;;3.05;0.70;;;;;;;;;;5020792;28;20050;-63
2021/03/27 11:49:30;;;;;;;3.60;0.45;;;;;;;;;;5001652;28;20058;-63
2021/03/27 11:52:26;;;;;;;3.50;0.60;;;;;;;;;;5006373;28;20046;-63
2021/03/27 11:55:17;;;;;;;4.53;1.33;;;;;;;;;;5004039;28;20038;-62
2021/03/27 11:58:15;;;;;;;11.32;1.00;;;;;;;;;;5133536;22;20052;-63
2021/03/27 12:01:04;;;;;;;5.30;1.20;;;;;;;;;;5087360;28;20528;-62
2021/03/27 12:03:49;;;;;;;9.23;2.00;;;;;;;;;;5091989;28;20040;-63
2021/03/27 12:06:35;;;;;;;4.45;0.82;;;;;;;;;;5089692;28;20040;-63
2021/03/27 12:09:39;;;;;;;4.72;0.93;;;;;;;;;;5092122;28;20048;-63
2021/03/27 12:12:27;;;;;;;5.20;0.93;;;;;;;;;;5089708;28;20044;-63
2021/03/27 12:15:12;;;;;;;7.95;1.25;;;;;;;;;;5081657;28;20040;-63
2021/03/27 12:18:07;;;;;;;3.38;0.68;;;;;;;;;;5094553;28;20040;-63
2021/03/27 12:21:04;;;;;;;4.32;1.00;;;;;;;;;;5093503;28;20099;-63
2021/03/27 12:23:51;;;;;;;5.13;0.80;;;;;;;;;;5107815;28;20047;-63
2021/03/27 12:26:56;;;;;;;3.70;0.88;;;;;;;;;;5107698;28;20521;-63
2021/03/27 12:29:42;;;;;;;7.78;1.30;;;;;;;;;;5094519;28;20071;-63
2021/03/27 12:32:39;;;;;;;7.70;1.17;;;;;;;;;;5080020;28;20044;-63
2021/03/27 12:35:25;;;;;;;4.18;1.05;;;;;;;;;;5087236;28;20049;-63
2021/03/27 12:38:10;;;;;;;2.67;1.23;;;;;;;;;;5073968;28;20119;-63
2021/03/27 12:41:04;;;;;;;3.30;1.20;;;;;;;;;;5086734;28;20072;-63
2021/03/27 12:43:50;;;;;;;11.10;1.55;;;;;;;;;;5094048;28;20068;-62
2021/03/27 12:46:35;;;;;;;14.52;2.00;;;;;;;;;;5107554;28;20067;-62
2021/03/27 12:49:32;;;;;;;6.97;1.60;;;;;;;;;;5094284;28;20044;-62
2021/03/27 12:52:40;;;;;;;8.27;1.90;;;;;;;;;;5102401;28;20456;-62
2021/03/27 12:55:44;;;;;;;11.15;2.10;;;;;;;;;;5066174;28;20402;-62
2021/03/27 12:58:32;;;;;;;7.78;1.58;;;;;;;;;;5088319;28;20081;-62
2021/03/27 13:01:21;;;;;;;14.20;2.13;;;;;;;;;;5090317;28;20067;-62
2021/03/27 13:04:13;;;;;;;7.22;1.65;;;;;;;;;;5087506;28;20047;-62
2021/03/27 13:07:18;;;;;;;7.53;2.20;;;;;;;;;;5103994;28;20048;-63
2021/03/27 13:10:06;;;;;;;11.15;2.33;;;;;;;;;;5089291;28;20044;-63
2021/03/27 13:13:06;;;;;;;8.95;2.55;;;;;;;;;;5091244;28;20068;-63
2021/03/27 13:15:54;;;;;;;9.07;2.95;;;;;;;;;;5071847;28;20444;-63
2021/03/27 13:18:45;;;;;;;9.80;1.98;;;;;;;;;;5083044;28;20085;-63
2021/03/27 13:21:32;;;;;;;15.82;2.40;;;;;;;;;;5092390;28;20044;-62
2021/03/27 13:24:19;;;;;;;8.95;2.13;;;;;;;;;;5082540;28;20117;-62
2021/03/27 13:27:11;;;;;;;16.27;2.55;;;;;;;;;;5089622;28;20044;-62
2021/03/27 13:29:59;;;;;;;18.10;3.33;;;;;;;;;;5090277;28;20151;-62
2021/03/27 13:32:44;;;;;;;11.70;3.47;;;;;;;;;;5090520;28;20047;-62
2021/03/27 13:35:33;;;;;;;8.38;1.92;;;;;;;;;;5087372;28;20048;-62
2021/03/27 13:38:27;;;;;;;13.45;2.47;;;;;;;;;;5103917;28;20052;-62
2021/03/27 13:41:19;;;;;;;13.30;2.90;;;;;;;;;;5103671;28;20040;-63
2021/03/27 13:44:06;;;;;;;10.82;2.63;;;;;;;;;;5093432;28;20048;-62
2021/03/27 13:46:52;;;;;;;9.68;1.73;;;;;;;;;;5090395;28;20044;-63
2021/03/27 13:49:39;;;;;;;6.28;1.80;;;;;;;;;;5091217;28;20052;-63
2021/03/27 13:52:29;;;;;;;11.63;1.80;;;;;;;;;;5089222;28;20501;-63
2021/03/27 13:55:17;;;;;;;15.15;2.30;;;;;;;;;;5088422;28;20091;-63
2021/03/27 13:58:03;;;;;;;16.20;2.92;;;;;;;;;;5084948;28;20576;-63
2021/03/27 14:00:58;;;;;;;16.60;3.10;;;;;;;;;;5083731;28;20049;-62
2021/03/27 14:03:43;;;;;;;8.45;2.05;;;;;;;;;;5086836;28;20440;-63
2021/03/27 14:06:33;;;;;;;14.38;2.38;;;;;;;;;;5078338;28;20085;-63
2021/03/27 14:09:20;;;;;;;10.55;2.63;;;;;;;;;;5089178;28;20056;-63
2021/03/27 14:12:05;;;;;;;13.38;2.47;;;;;;;;;;5090512;28;20039;-63
2021/03/27 14:15:06;;;;;;;11.43;2.78;;;;;;;;;;5090196;28;20052;-63
2021/03/27 14:18:04;;;;;;;10.10;2.90;;;;;;;;;;5091095;28;20032;-64
2021/03/27 14:20:50;;;;;;;11.77;2.55;;;;;;;;;;5090981;28;20082;-63
2021/03/27 14:23:56;;;;;;;10.23;2.55;;;;;;;;;;5089705;28;20478;-64
2021/03/27 14:26:48;;;;;;;11.25;2.50;;;;;;;;;;5075662;28;20036;-64
2021/03/27 14:29:42;;;;;;;9.88;2.30;;;;;;;;;;5082351;28;20045;-63
2021/03/27 14:32:36;;;;;;;7.97;2.30;;;;;;;;;;5080856;28;20048;-64
2021/03/27 14:35:21;;;;;;;15.25;3.22;;;;;;;;;;5068980;28;20586;-63
2021/03/27 14:38:18;;;;;;;14.55;2.63;;;;;;;;;;5069892;28;20037;-64
2021/03/27 14:41:13;;;;;;;11.10;2.58;;;;;;;;;;5069771;28;20476;-64
2021/03/27 14:44:06;;;;;;;11.77;3.20;;;;;;;;;;5065767;28;20486;-63
2021/03/27 14:46:54;;;;;;;12.25;2.97;;;;;;;;;;5071315;28;20483;-64
2021/03/27 14:49:52;;;;;;;12.00;2.75;;;;;;;;;;5070276;28;20124;-63
2021/03/27 14:52:43;;;;;;;9.68;2.17;;;;;;;;;;5083278;28;20044;-64
2021/03/27 14:55:29;;;;;;;11.52;2.83;;;;;;;;;;5069766;28;20048;-63
2021/03/27 14:58:26;;;;;;;13.38;2.63;;;;;;;;;;5096667;28;20522;-63
2021/03/27 15:01:13;;;;;;;9.55;2.53;;;;;;;;;;5088563;28;20071;-63
2021/03/27 15:04:13;;;;;;;10.23;2.20;;;;;;;;;;5088133;28;20891;-63
2021/03/27 15:06:58;;;;;;;12.70;2.60;;;;;;;;;;5084995;28;20075;-63
2021/03/27 15:10:03;;;;;;;13.48;2.80;;;;;;;;;;5068481;28;20048;-63
2021/03/27 15:12:53;;;;;;;19.20;3.42;;;;;;;;;;5069732;28;20052;-63
2021/03/27 15:15:41;;;;;;;13.43;2.70;;;;;;;;;;5068704;28;20086;-63
2021/03/27 15:18:33;;;;;;;18.45;3.95;;;;;;;;;;5082634;28;20040;-63
2021/03/27 15:21:20;;;;;;;11.90;2.78;;;;;;;;;;5088203;28;20579;-63
2021/03/27 15:24:08;;;;;;;16.40;3.30;;;;;;;;;;5088547;28;20445;-64
2021/03/27 15:27:16;;;;;;;17.55;3.63;;;;;;;;;;5088637;28;20036;-63
2021/03/27 15:30:20;;;;;;;11.55;2.92;;;;;;;;;;5088360;28;20048;-64
2021/03/27 15:33:26;;;;;;;11.05;2.30;;;;;;;;;;5088346;28;20044;-64
2021/03/27 15:36:16;;;;;;;16.60;2.90;;;;;;;;;;5088947;28;20052;-64
2021/03/27 15:39:28;;;;;;;17.45;3.55;;;;;;;;;;5076475;28;20127;-60
2021/03/27 15:42:14;;;;;;;14.45;2.70;;;;;;;;;;5084889;28;20059;-64
2021/03/27 15:45:05;;;;;;;13.90;2.97;;;;;;;;;;5079763;28;20059;-63
2021/03/27 15:47:51;;;;;;;12.52;2.47;;;;;;;;;;5098496;28;20048;-62
2021/03/27 15:50:42;;;;;;;14.75;2.30;;;;;;;;;;5097426;28;20044;-64
2021/03/27 15:53:28;;;;;;;18.55;2.90;;;;;;;;;;5081538;28;20044;-63
2021/03/27 15:56:22;;;;;;;15.05;3.80;;;;;;;;;;5079595;28;20048;-63
2021/03/27 15:59:16;;;;;;;14.48;2.88;;;;;;;;;;5071787;28;20422;-63
2021/03/27 16:02:15;;;;;;;11.57;2.67;;;;;;;;;;5090391;28;20044;-63
2021/03/27 16:05:03;;;;;;;16.90;3.58;;;;;;;;;;5092568;28;20052;-64
2021/03/27 16:07:49;;;;;;;15.00;3.08;;;;;;;;;;5087174;28;20131;-63
2021/03/27 16:10:35;;;;;;;19.58;3.10;;;;;;;;;;5085972;28;20506;-63
2021/03/27 16:13:43;;;;;;;11.90;3.67;;;;;;;;;;5072890;28;20045;-62
2021/03/27 16:16:47;;;;;;;17.55;3.30;;;;;;;;;;5086525;28;20474;-62
2021/03/27 16:19:50;;;;;;;14.55;3.65;;;;;;;;;;5073203;28;20495;-62
2021/03/27 16:22:39;;;;;;;14.75;2.92;;;;;;;;;;5072876;28;20045;-62
2021/03/27 16:25:29;;;;;;;14.05;3.58;;;;;;;;;;5085554;28;20079;-62
2021/03/27 16:28:20;;;;;;;16.75;3.13;;;;;;;;;;5076670;28;20056;-62
2021/03/27 16:31:14;;;;;;;14.25;3.70;;;;;;;;;;5071490;28;20052;-61
2021/03/27 16:34:00;;;;;;;15.00;3.90;;;;;;;;;;5071441;28;20052;-63
2021/03/27 16:37:00;;;;;;;13.88;3.00;;;;;;;;;;5073548;28;20048;-62
2021/03/27 16:39:45;;;;;;;12.15;2.90;;;;;;;;;;5105796;28;20052;-62
2021/03/27 16:42:49;;;;;;;13.02;2.90;;;;;;;;;;5087831;28;20048;-62
2021/03/27 16:45:38;;;;;;;12.90;4.05;;;;;;;;;;5092359;28;20052;-62
2021/03/27 16:48:32;;;;;;;18.25;4.07;;;;;;;;;;5093127;28;20112;-61
2021/03/27 16:51:30;;;;;;;11.38;2.47;;;;;;;;;;5084996;28;20044;-62
2021/03/27 16:54:15;;;;;;;12.18;3.25;;;;;;;;;;5071808;28;20044;-62
2021/03/27 16:57:10;;;;;;;19.45;3.20;;;;;;;;;;5072429;28;20075;-62
2021/03/27 17:00:02;;;;;;;14.02;3.30;;;;;;;;;;5070513;28;20040;-61
2021/03/27 17:02:52;;;;;;;15.32;2.67;;;;;;;;;;5071937;28;20053;-62
2021/03/27 17:05:50;;;;;;;18.63;3.75;;;;;;;;;;5071302;28;20566;-62
2021/03/27 17:08:49;;;;;;;15.02;3.00;;;;;;;;;;5078066;28;20047;-63
2021/03/27 17:11:53;;;;;;;16.98;3.35;;;;;;;;;;5104969;28;20044;-62
2021/03/27 17:14:57;;;;;;;14.52;3.65;;;;;;;;;;5091181;28;20082;-62